createdAt,value
2019-01-25T00:02:18.301Z,41.13
2019-01-25T00:04:46.580Z,41.95
2019-01-25T00:07:14.828Z,42.03
2019-01-25T00:09:43.314Z,40.13
2019-01-25T00:12:11.570Z,39.83
2019-01-25T00:14:39.852Z,38.02
2019-01-25T00:17:08.133Z,41.83
2019-01-25T00:19:36.384Z,39.80
2019-01-25T00:22:04.881Z,41.10
2019-01-25T00:24:33.184Z,41.53
2019-01-25T00:27:01.429Z,41.02
2019-01-25T00:29:29.681Z,40.40
2019-01-25T00:31:57.985Z,41.45
2019-01-25T00:34:26.279Z,41.37
2019-01-25T00:36:54.708Z,40.58
2019-01-25T00:39:23.057Z,41.13
2019-01-25T00:41:51.361Z,42.10
2019-01-25T00:44:19.608Z,41.58
2019-01-25T00:46:47.857Z,41.30
2019-01-25T00:49:16.137Z,41.23
2019-01-25T00:51:44.400Z,42.23
2019-01-25T00:54:12.826Z,40.12
2019-01-25T00:56:41.121Z,41.55
2019-01-25T00:59:09.364Z,42.58
2019-01-25T01:01:37.679Z,41.37
2019-01-25T01:04:05.930Z,41.60
2019-01-25T01:06:34.256Z,43.68
2019-01-25T01:09:02.542Z,42.40
2019-01-25T01:11:30.786Z,40.90
2019-01-25T01:13:59.033Z,41.50
2019-01-25T01:16:27.330Z,43.20
2019-01-25T01:18:55.580Z,41.58
2019-01-25T01:21:23.854Z,42.48
2019-01-25T01:23:52.159Z,42.67
2019-01-25T01:26:20.446Z,43.02
2019-01-25T01:28:48.691Z,43.25
2019-01-25T01:31:17.010Z,42.20
2019-01-25T01:33:45.261Z,43.85
2019-01-25T01:36:13.550Z,44.53
2019-01-25T01:38:41.866Z,44.53
2019-01-25T01:41:10.140Z,43.87
2019-01-25T01:43:38.413Z,45.20
2019-01-25T01:46:06.716Z,44.63
2019-01-25T01:48:34.969Z,45.23
2019-01-25T01:51:04.118Z,45.40
2019-01-25T01:53:32.368Z,44.85
2019-01-25T01:56:00.688Z,42.73
2019-01-25T01:58:28.956Z,45.50
2019-01-25T02:00:57.223Z,44.83
2019-01-25T02:03:25.500Z,44.03
2019-01-25T02:05:53.748Z,46.68
2019-01-25T02:08:22.058Z,45.45
2019-01-25T02:10:50.321Z,45.45
2019-01-25T02:13:19.212Z,44.88
2019-01-25T02:15:47.506Z,38.00
2019-01-25T02:18:15.754Z,44.05
2019-01-25T02:20:44.047Z,44.18
2019-01-25T02:23:12.297Z,45.67
2019-01-25T02:25:40.598Z,45.52
2019-01-25T02:28:08.854Z,45.58
2019-01-25T02:30:37.161Z,44.95
2019-01-25T02:33:05.475Z,45.88
2019-01-25T02:35:33.732Z,43.17
2019-01-25T02:38:01.982Z,43.78
2019-01-25T02:40:38.395Z,42.75
2019-01-25T02:43:00.244Z,44.42
2019-01-25T02:45:28.549Z,44.65
2019-01-25T02:47:56.798Z,45.17
2019-01-25T02:50:25.098Z,45.40
2019-01-25T02:52:53.357Z,44.35
2019-01-25T02:55:21.652Z,45.03
2019-01-25T02:57:49.936Z,44.80
2019-01-25T03:00:25.312Z,39.67
2019-01-25T03:02:53.910Z,44.80
2019-01-25T03:05:23.026Z,44.77
2019-01-25T03:07:51.430Z,45.83
2019-01-25T03:10:28.248Z,43.85
2019-01-25T03:12:51.125Z,45.90
2019-01-25T03:15:21.564Z,45.08
2019-01-25T03:17:49.823Z,44.93
2019-01-25T03:20:18.558Z,44.33
2019-01-25T03:22:46.821Z,45.20
2019-01-25T03:25:19.881Z,44.40
2019-01-25T03:27:48.151Z,45.35
2019-01-25T03:30:21.245Z,45.65
2019-01-25T03:32:49.566Z,44.77
2019-01-25T03:35:19.635Z,45.17
2019-01-25T03:37:47.913Z,43.83
2019-01-25T03:40:18.799Z,44.63
2019-01-25T03:42:47.107Z,44.85
2019-01-25T03:45:15.785Z,44.77
2019-01-25T03:47:44.037Z,44.30
2019-01-25T03:50:17.236Z,46.00
2019-01-25T03:52:45.483Z,44.53
2019-01-25T03:55:14.679Z,44.70
2019-01-25T03:57:42.974Z,44.65
2019-01-25T04:00:14.075Z,44.03
2019-01-25T04:02:42.361Z,44.80
2019-01-25T04:05:12.750Z,45.12
2019-01-25T04:07:41.051Z,45.70
2019-01-25T04:10:14.510Z,45.60
2019-01-25T04:12:42.816Z,43.23
2019-01-25T04:15:14.068Z,44.80
2019-01-25T04:17:42.356Z,44.35
2019-01-25T04:20:13.550Z,44.65
2019-01-25T04:22:41.845Z,47.17
2019-01-25T04:25:15.672Z,45.03
2019-01-25T04:27:43.978Z,43.87
2019-01-25T04:30:29.415Z,45.08
2019-01-25T04:32:57.817Z,44.60
2019-01-25T04:35:26.114Z,44.38
2019-01-25T04:37:54.393Z,45.12
2019-01-25T04:40:22.690Z,44.53
2019-01-25T04:42:50.987Z,44.88
2019-01-25T04:45:20.927Z,45.80
2019-01-25T04:47:49.184Z,45.40
2019-01-25T04:50:22.888Z,45.60
2019-01-25T04:52:51.182Z,45.73
2019-01-25T04:55:21.282Z,45.43
2019-01-25T04:57:49.578Z,43.33
2019-01-25T05:00:20.071Z,45.33
2019-01-25T05:02:58.970Z,45.10
2019-01-25T05:05:27.732Z,44.65
2019-01-25T05:08:09.883Z,46.68
2019-01-25T05:10:38.178Z,46.48
2019-01-25T05:13:06.511Z,44.75
2019-01-25T05:15:34.882Z,44.77
2019-01-25T05:18:04.594Z,47.00
2019-01-25T05:20:32.844Z,46.10
2019-01-25T05:23:06.411Z,45.75
2019-01-25T05:25:34.689Z,44.80
2019-01-25T05:28:06.200Z,47.10
2019-01-25T05:30:34.513Z,45.85
2019-01-25T05:33:02.784Z,45.98
2019-01-25T05:35:33.876Z,47.25
2019-01-25T05:38:02.172Z,45.43
2019-01-25T05:40:30.420Z,46.37
2019-01-25T05:42:58.729Z,46.42
2019-01-25T05:45:27.028Z,46.73
2019-01-25T05:47:55.277Z,45.98
2019-01-25T05:50:23.530Z,46.63
2019-01-25T05:52:51.837Z,45.28
2019-01-25T05:55:21.612Z,45.80
2019-01-25T05:57:49.908Z,46.83
2019-01-25T06:00:19.803Z,47.58
2019-01-25T06:02:48.106Z,44.98
2019-01-25T06:05:16.362Z,47.35
2019-01-25T06:07:44.658Z,47.43
2019-01-25T06:10:13.390Z,46.05
2019-01-25T06:12:41.636Z,48.70
2019-01-25T06:15:12.058Z,47.67
2019-01-25T06:17:40.330Z,46.73
2019-01-25T06:20:10.354Z,46.54
2019-01-25T06:22:38.613Z,47.65
2019-01-25T06:25:07.915Z,47.48
2019-01-25T06:27:39.858Z,46.40
2019-01-25T06:30:16.917Z,46.42
2019-01-25T06:32:45.261Z,46.68
2019-01-25T06:35:13.660Z,46.80
2019-01-25T06:37:41.919Z,45.65
2019-01-25T06:40:12.741Z,42.00
2019-01-25T06:42:41.928Z,46.35
2019-01-25T06:45:11.841Z,50.93
2019-01-25T06:47:40.093Z,47.43
2019-01-25T06:50:10.545Z,50.38
2019-01-25T06:52:38.801Z,48.30
2019-01-25T06:55:08.646Z,47.35
2019-01-25T06:57:50.301Z,47.65
2019-01-25T07:00:32.466Z,47.15
2019-01-25T07:03:00.720Z,48.40
2019-01-25T07:05:29.014Z,48.10
2019-01-25T07:07:57.266Z,48.58
2019-01-25T07:10:25.595Z,47.93
2019-01-25T07:12:53.906Z,47.43
2019-01-25T07:15:23.964Z,46.68
2019-01-25T07:17:52.379Z,48.65
2019-01-25T07:20:20.649Z,49.18
2019-01-25T07:22:48.946Z,47.40
2019-01-25T07:25:17.244Z,49.98
2019-01-25T07:27:45.534Z,51.05
2019-01-25T07:30:15.498Z,52.97
2019-01-25T07:32:43.766Z,56.60
2019-01-25T07:35:12.073Z,56.50
2019-01-25T07:37:40.328Z,56.20
2019-01-25T07:40:12.221Z,58.35
2019-01-25T07:42:40.494Z,60.43
2019-01-25T07:45:13.597Z,60.92
2019-01-25T07:47:41.833Z,62.58
2019-01-25T07:50:11.528Z,60.00
2019-01-25T07:52:39.832Z,61.58
2019-01-25T07:55:12.360Z,64.70
2019-01-25T07:57:40.692Z,62.67
2019-01-25T08:00:18.186Z,63.38
2019-01-25T08:02:46.459Z,62.67
2019-01-25T08:05:14.873Z,64.85
2019-01-25T08:07:43.102Z,70.30
2019-01-25T08:10:19.577Z,91.87
2019-01-25T08:12:48.013Z,67.45
2019-01-25T08:15:19.673Z,68.15
2019-01-25T08:17:47.995Z,68.75
2019-01-25T08:20:16.342Z,66.15
2019-01-25T08:22:44.588Z,65.70
2019-01-25T08:25:12.899Z,67.03
2019-01-25T08:52:32.060Z,77.17
2019-01-25T08:55:00.549Z,71.62
2019-01-25T08:57:29.004Z,70.55
2019-01-25T08:59:57.456Z,70.30
2019-01-25T09:02:25.708Z,65.28
2019-01-25T09:04:54.008Z,67.35
2019-01-25T09:07:22.303Z,64.58
2019-01-25T09:09:50.589Z,64.07
2019-01-25T09:12:23.258Z,63.33
2019-01-25T09:14:48.885Z,65.70
2019-01-25T09:17:17.179Z,65.22
2019-01-25T09:19:45.473Z,62.58
2019-01-25T09:25:08.115Z,62.85
2019-01-25T09:27:36.370Z,62.62
2019-01-25T09:30:07.910Z,64.50
2019-01-25T09:32:36.208Z,64.57
2019-01-25T09:35:06.839Z,62.50
2019-01-25T09:37:35.222Z,62.93
2019-01-25T09:40:06.955Z,65.45
2019-01-25T09:42:35.332Z,63.65
2019-01-25T09:45:06.726Z,61.63
2019-01-25T09:47:35.152Z,64.17
2019-01-25T09:50:09.907Z,61.75
2019-01-25T09:52:38.171Z,60.12
2019-01-25T09:55:09.741Z,61.23
2019-01-25T09:57:38.031Z,61.48
2019-01-25T10:00:30.794Z,61.35
2019-01-25T10:02:59.086Z,60.60
2019-01-25T10:05:27.334Z,60.98
2019-01-25T10:07:55.663Z,61.08
2019-01-25T10:10:23.960Z,60.03
2019-01-25T10:12:52.263Z,68.42
2019-01-25T10:15:26.246Z,62.73
2019-01-25T10:17:54.708Z,58.78
2019-01-25T10:20:23.067Z,57.45
2019-01-25T10:22:51.363Z,57.53
2019-01-25T10:25:19.777Z,57.83
2019-01-25T10:27:48.063Z,59.30
2019-01-25T10:30:22.200Z,56.23
2019-01-25T10:32:50.511Z,58.02
2019-01-25T10:35:18.826Z,57.13
2019-01-25T10:37:47.191Z,50.80
2019-01-25T10:40:17.388Z,48.70
2019-01-25T10:42:53.005Z,43.20
2019-01-25T10:45:21.923Z,45.50
2019-01-25T10:47:50.412Z,46.30
2019-01-25T10:50:18.659Z,44.33
2019-01-25T10:52:46.970Z,43.28
2019-01-25T10:55:15.266Z,44.48
2019-01-25T10:57:43.666Z,42.45
2019-01-25T11:00:14.767Z,43.02
2019-01-25T11:02:43.072Z,43.83
2019-01-25T11:05:14.354Z,40.70
2019-01-25T11:07:42.653Z,37.10
2019-01-25T11:10:10.962Z,42.40
2019-01-25T11:12:39.244Z,43.10
2019-01-25T11:15:10.822Z,41.90
2019-01-25T11:17:39.139Z,40.20
2019-01-25T11:20:13.249Z,44.50
2019-01-25T11:22:41.524Z,39.18
2019-01-25T11:25:15.961Z,41.02
2019-01-25T11:27:44.253Z,24.05
2019-01-25T11:30:15.476Z,36.63
2019-01-25T11:32:43.787Z,38.23
2019-01-25T11:35:12.146Z,37.42
2019-01-25T11:37:41.991Z,31.10
2019-01-25T11:40:13.740Z,33.25
2019-01-25T11:42:42.017Z,22.13
2019-01-25T11:45:11.948Z,33.30
2019-01-25T11:47:40.233Z,34.35
2019-01-25T11:50:14.379Z,34.62
2019-01-25T11:52:42.649Z,31.85
2019-01-25T11:55:11.744Z,35.20
2019-01-25T11:57:40.033Z,40.17
2019-01-25T12:00:26.152Z,32.02
2019-01-25T12:02:54.444Z,34.58
2019-01-25T12:05:24.132Z,35.70
2019-01-25T12:07:52.991Z,34.00
2019-01-25T12:10:26.736Z,33.88
2019-01-25T12:12:55.011Z,34.00
2019-01-25T12:15:23.279Z,31.62
2019-01-25T12:17:51.569Z,35.43
2019-01-25T12:20:21.966Z,32.58
2019-01-25T12:22:50.272Z,35.48
2019-01-25T12:25:18.531Z,34.45
2019-01-25T12:27:46.824Z,36.35
2019-01-25T12:30:29.780Z,36.73
2019-01-25T12:32:58.151Z,38.00
2019-01-25T12:35:28.681Z,36.30
2019-01-25T12:37:56.993Z,37.00
2019-01-25T12:40:25.414Z,38.50
2019-01-25T12:42:53.753Z,37.45
2019-01-25T12:45:24.416Z,36.10
2019-01-25T12:47:52.733Z,38.23
2019-01-25T12:50:27.131Z,35.43
2019-01-25T12:52:55.526Z,36.13
2019-01-25T12:55:23.947Z,35.65
2019-01-25T12:57:52.337Z,39.85
2019-01-25T13:00:23.991Z,38.98
2019-01-25T13:02:52.685Z,39.45
2019-01-25T13:05:21.523Z,38.40
2019-01-25T13:07:49.815Z,36.15
2019-01-25T13:10:23.414Z,38.60
2019-01-25T13:12:51.671Z,41.85
2019-01-25T13:15:20.531Z,37.70
2019-01-25T13:17:48.793Z,36.50
2019-01-25T13:20:26.182Z,37.35
2019-01-25T13:22:54.731Z,37.03
2019-01-25T13:25:23.034Z,36.88
2019-01-25T13:27:56.176Z,36.38
2019-01-25T13:30:28.497Z,37.88
2019-01-25T13:32:57.219Z,36.80
2019-01-25T13:35:25.554Z,35.35
2019-01-25T13:37:54.016Z,36.53
2019-01-25T13:40:26.969Z,33.85
2019-01-25T13:42:55.311Z,36.20
2019-01-25T13:45:23.734Z,38.80
2019-01-25T13:47:52.010Z,37.35
2019-01-25T13:50:25.839Z,33.02
2019-01-25T13:52:54.233Z,36.70
2019-01-25T13:55:22.520Z,37.05
2019-01-25T13:57:50.845Z,31.12
2019-01-25T14:00:27.295Z,28.63
2019-01-25T14:02:55.721Z,31.95
2019-01-25T14:05:24.102Z,33.33
2019-01-25T14:07:52.429Z,32.95
2019-01-25T14:10:29.129Z,32.73
2019-01-25T14:12:57.499Z,29.45
2019-01-25T14:15:26.217Z,30.15
2019-01-25T14:17:54.520Z,32.03
2019-01-25T14:20:27.881Z,29.63
2019-01-25T14:22:56.143Z,25.33
2019-01-25T14:25:24.462Z,23.55
2019-01-25T14:27:53.283Z,30.02
2019-01-25T14:30:24.304Z,28.95
2019-01-25T14:32:52.613Z,28.85
2019-01-25T14:35:20.915Z,30.25
2019-01-25T14:37:49.362Z,29.02
2019-01-25T14:40:17.612Z,29.75
2019-01-25T14:42:45.860Z,29.60
2019-01-25T14:45:16.412Z,30.25
2019-01-25T14:47:44.975Z,27.00
2019-01-25T14:50:16.209Z,29.25
2019-01-25T14:52:44.457Z,20.90
2019-01-25T14:55:12.758Z,23.52
2019-01-25T14:57:41.030Z,25.35
2019-01-25T15:00:10.106Z,24.57
2019-01-25T15:02:40.079Z,28.50
2019-01-25T15:05:14.901Z,27.24
2019-01-25T15:07:43.155Z,28.07
2019-01-25T15:10:14.590Z,26.95
2019-01-25T15:12:42.874Z,27.22
2019-01-25T15:15:12.970Z,25.60
2019-01-25T15:17:41.245Z,27.58
2019-01-25T15:20:12.597Z,26.55
2019-01-25T15:22:40.895Z,29.42
2019-01-25T15:25:09.207Z,28.33
2019-01-25T15:27:37.634Z,27.40
2019-01-25T15:30:09.141Z,25.57
2019-01-25T15:32:37.418Z,27.37
2019-01-25T15:35:08.636Z,26.77
2019-01-25T15:37:36.898Z,28.07
2019-01-25T15:40:08.837Z,26.30
2019-01-25T15:42:37.090Z,25.50
2019-01-25T15:45:10.803Z,25.82
2019-01-25T15:47:39.054Z,27.02
2019-01-25T15:50:13.533Z,26.33
2019-01-25T15:52:41.829Z,25.62
2019-01-25T15:55:10.497Z,27.00
2019-01-25T15:57:38.780Z,25.23
2019-01-25T16:00:12.306Z,25.48
2019-01-25T16:02:40.601Z,26.60
2019-01-25T16:05:11.093Z,26.24
2019-01-25T16:07:39.434Z,25.27
2019-01-25T16:10:10.982Z,26.20
2019-01-25T16:12:39.238Z,30.35
2019-01-25T16:15:10.813Z,23.52
2019-01-25T16:17:39.057Z,26.93
2019-01-25T16:20:10.459Z,28.05
2019-01-25T16:22:39.058Z,26.75
2019-01-25T16:25:10.674Z,26.77
2019-01-25T16:27:38.930Z,27.95
2019-01-25T16:30:10.481Z,26.62
2019-01-25T16:32:38.858Z,28.73
2019-01-25T16:35:08.751Z,27.35
2019-01-25T16:37:37.053Z,29.52
2019-01-25T16:40:17.050Z,29.37
2019-01-25T16:42:45.325Z,29.25
2019-01-25T16:45:19.258Z,28.87
2019-01-25T16:47:47.713Z,31.87
2019-01-25T16:50:23.413Z,29.50
2019-01-25T16:52:46.519Z,29.65
2019-01-25T16:55:15.824Z,29.37
2019-01-25T16:57:44.135Z,30.23
2019-01-25T17:00:15.648Z,29.55
2019-01-25T17:02:43.901Z,30.97
2019-01-25T17:05:12.221Z,30.48
2019-01-25T17:07:40.487Z,29.70
2019-01-25T17:10:11.399Z,28.62
2019-01-25T17:12:39.725Z,30.08
2019-01-25T17:15:10.894Z,30.85
2019-01-25T17:17:39.413Z,31.17
2019-01-25T17:20:21.050Z,27.70
2019-01-25T17:22:46.174Z,29.52
2019-01-25T17:25:15.034Z,29.42
2019-01-25T17:27:43.339Z,29.90
2019-01-25T17:30:14.855Z,29.72
2019-01-25T17:32:43.104Z,29.92
2019-01-25T17:35:11.414Z,28.97
2019-01-25T17:37:39.660Z,30.75
2019-01-25T17:40:14.048Z,30.68
2019-01-25T17:42:42.358Z,30.30
2019-01-25T17:45:11.144Z,30.57
2019-01-25T17:47:39.416Z,31.42
2019-01-25T17:50:10.666Z,30.97
2019-01-25T17:52:38.970Z,31.27
2019-01-25T17:55:09.769Z,30.85
2019-01-25T17:57:38.693Z,31.10
2019-01-25T18:00:20.151Z,31.30
2019-01-25T18:02:48.445Z,31.52
2019-01-25T18:05:16.700Z,30.15
2019-01-25T18:07:45.010Z,31.42
2019-01-25T18:10:15.952Z,32.15
2019-01-25T18:12:44.201Z,31.50
2019-01-25T18:15:14.793Z,33.20
2019-01-25T18:17:43.224Z,31.62
2019-01-25T18:20:14.581Z,33.40
2019-01-25T18:22:42.876Z,32.83
2019-01-25T18:25:14.221Z,32.30
2019-01-25T18:27:46.268Z,32.70
2019-01-25T18:30:17.789Z,32.65
2019-01-25T18:32:46.108Z,30.97
2019-01-25T18:35:14.359Z,30.97
2019-01-25T18:37:42.685Z,31.65
2019-01-25T18:40:11.872Z,33.48
2019-01-25T18:42:40.129Z,34.95
2019-01-25T18:45:09.776Z,33.28
2019-01-25T18:47:38.039Z,33.18
2019-01-25T18:50:09.605Z,33.45
2019-01-25T18:52:37.907Z,34.18
2019-01-25T18:55:12.222Z,35.45
2019-01-25T18:57:40.515Z,34.20
2019-01-25T19:00:12.370Z,34.44
2019-01-25T19:02:40.808Z,32.15
2019-01-25T19:05:09.937Z,34.40
2019-01-25T19:07:38.258Z,34.13
2019-01-25T19:10:12.531Z,33.25
2019-01-25T19:12:40.833Z,34.48
2019-01-25T19:15:15.063Z,35.13
2019-01-25T19:17:43.315Z,33.85
2019-01-25T19:20:14.661Z,33.20
2019-01-25T19:22:42.953Z,32.93
2019-01-25T19:25:11.847Z,34.03
2019-01-25T19:27:40.171Z,33.37
2019-01-25T19:30:14.810Z,33.58
2019-01-25T19:32:43.094Z,32.42
2019-01-25T19:35:12.782Z,32.98
2019-01-25T19:37:41.091Z,33.28
2019-01-25T19:40:12.776Z,33.18
2019-01-25T19:42:41.631Z,32.85
2019-01-25T19:45:12.078Z,30.60
2019-01-25T19:47:40.467Z,33.40
2019-01-25T19:50:11.989Z,35.83
2019-01-25T19:52:40.606Z,33.53
2019-01-25T19:55:12.224Z,32.78
2019-01-25T19:57:40.498Z,33.63
2019-01-25T20:00:12.053Z,30.88
2019-01-25T20:02:40.376Z,32.13
2019-01-25T20:05:12.041Z,31.05
2019-01-25T20:07:41.314Z,31.65
2019-01-25T20:10:11.713Z,32.17
2019-01-25T20:12:40.024Z,30.55
2019-01-25T20:15:19.365Z,33.42
2019-01-25T20:17:43.492Z,34.15
2019-01-25T20:20:17.778Z,33.80
2019-01-25T20:22:46.053Z,35.05
2019-01-25T20:25:14.563Z,36.00
2019-01-25T20:27:42.907Z,37.00
2019-01-25T20:30:23.387Z,32.58
2019-01-25T20:32:51.876Z,37.53
2019-01-25T20:35:25.473Z,37.60
2019-01-25T20:37:53.873Z,40.08
2019-01-25T20:40:22.250Z,38.67
2019-01-25T20:42:50.594Z,40.15
2019-01-25T20:45:27.255Z,35.80
2019-01-25T20:47:54.763Z,39.13
2019-01-25T20:50:25.557Z,39.25
2019-01-25T20:52:53.986Z,33.40
2019-01-25T20:55:22.241Z,39.25
2019-01-25T20:57:50.606Z,39.20
2019-01-25T21:00:30.724Z,37.03
2019-01-25T21:02:59.009Z,39.65
2019-01-25T21:05:27.549Z,42.50
2019-01-25T21:07:55.918Z,41.13
2019-01-25T21:10:25.645Z,44.00
2019-01-25T21:12:54.184Z,44.20
2019-01-25T21:15:34.771Z,45.30
2019-01-25T21:17:57.359Z,43.00
2019-01-25T21:20:37.096Z,41.92
2019-01-25T21:23:05.643Z,39.90
2019-01-25T21:25:33.859Z,41.70
2019-01-25T21:28:02.284Z,43.90
2019-01-25T21:30:32.947Z,42.33
2019-01-25T21:33:05.758Z,42.30
2019-01-25T21:35:33.974Z,40.73
2019-01-25T21:38:02.240Z,42.98
2019-01-25T21:40:32.373Z,43.05
2019-01-25T21:43:01.095Z,42.67
2019-01-25T21:45:32.052Z,41.73
2019-01-25T21:48:00.997Z,42.80
2019-01-25T21:50:35.282Z,43.02
2019-01-25T21:53:04.552Z,44.95
2019-01-25T21:55:33.465Z,45.10
2019-01-25T21:58:05.248Z,46.10
2019-01-25T22:00:34.787Z,43.83
2019-01-25T22:03:03.260Z,42.45
2019-01-25T22:05:31.578Z,43.87
2019-01-25T22:07:59.856Z,39.42
2019-01-25T22:10:30.985Z,42.43
2019-01-25T22:12:59.228Z,42.88
2019-01-25T22:15:27.908Z,41.05
2019-01-25T22:17:56.193Z,39.73
2019-01-25T22:20:26.539Z,39.40
2019-01-25T22:22:55.103Z,36.68
2019-01-25T22:25:23.620Z,32.58
2019-01-25T22:27:53.013Z,38.08
2019-01-25T22:30:27.035Z,35.30
2019-01-25T22:32:55.348Z,33.67
2019-01-25T22:35:23.706Z,27.87
2019-01-25T22:37:53.282Z,30.57
2019-01-25T22:40:24.598Z,32.30
2019-01-25T22:42:52.888Z,28.62
2019-01-25T22:45:23.401Z,21.62
2019-01-25T22:47:51.639Z,29.50
2019-01-25T22:50:23.196Z,26.17
2019-01-25T22:52:51.449Z,11.63
2019-01-25T22:55:21.080Z,24.72
2019-01-25T22:57:49.776Z,25.82
2019-01-25T23:00:48.492Z,23.57
2019-01-25T23:03:20.243Z,23.90
2019-01-25T23:06:24.889Z,22.90
2019-01-25T23:08:53.157Z,23.93
2019-01-25T23:11:21.402Z,23.65
2019-01-25T23:13:49.822Z,24.15
2019-01-25T23:16:19.572Z,15.72
2019-01-25T23:18:47.855Z,24.87
2019-01-25T23:21:16.100Z,26.20
2019-01-25T23:23:44.405Z,25.95
2019-01-25T23:26:12.718Z,27.02
2019-01-25T23:28:40.989Z,24.45
2019-01-25T23:31:09.335Z,29.40
2019-01-25T23:33:37.649Z,30.17
2019-01-25T23:36:05.925Z,26.77
2019-01-25T23:38:34.162Z,33.45
2019-01-25T23:41:02.453Z,23.75
2019-01-25T23:43:30.716Z,30.17
2019-01-25T23:46:00.930Z,31.30
2019-01-25T23:48:29.149Z,27.30
2019-01-25T23:50:57.426Z,25.85
2019-01-25T23:53:25.723Z,26.85
2019-01-25T23:55:53.955Z,28.67
2019-01-25T23:58:22.189Z,26.85
